createdAt,value
2022-10-17T00:03:43.039Z,91.40
2022-10-17T00:13:49.371Z,91.33
2022-10-17T00:23:55.081Z,92.80
2022-10-17T00:33:58.318Z,94.83
2022-10-17T00:44:06.264Z,93.53
2022-10-17T00:54:13.152Z,92.67
2022-10-17T01:04:18.780Z,92.87
2022-10-17T01:14:31.085Z,88.00
2022-10-17T01:24:51.296Z,89.80
2022-10-17T01:35:01.494Z,90.30
2022-10-17T01:45:12.938Z,88.33
2022-10-17T01:55:23.988Z,88.53
2022-10-17T02:05:32.471Z,91.70
2022-10-17T02:16:04.274Z,90.57
2022-10-17T02:26:12.660Z,92.03
2022-10-17T02:36:22.706Z,92.70
2022-10-17T02:46:28.499Z,93.80
2022-10-17T02:56:38.599Z,90.13
2022-10-17T03:06:42.795Z,91.20
2022-10-17T03:16:47.577Z,86.40
2022-10-17T03:26:53.508Z,92.30
2022-10-17T03:36:58.529Z,88.90
2022-10-17T03:47:04.666Z,89.17
2022-10-17T03:57:09.517Z,90.50
2022-10-17T04:07:13.300Z,91.60
2022-10-17T04:17:21.463Z,108.30
2022-10-17T04:27:25.508Z,90.70
2022-10-17T04:37:31.943Z,90.47
2022-10-17T04:47:38.466Z,91.33
2022-10-17T04:57:43.268Z,92.97
2022-10-17T05:07:54.105Z,90.87
2022-10-17T05:18:03.148Z,90.67
2022-10-17T05:28:07.085Z,92.67
2022-10-17T05:38:11.865Z,87.70
2022-10-17T05:48:18.091Z,86.33
2022-10-17T05:58:45.437Z,87.57
2022-10-17T06:08:52.096Z,89.47
2022-10-17T06:19:02.112Z,92.93
2022-10-17T06:29:06.123Z,102.97
2022-10-17T06:39:14.696Z,101.60
2022-10-17T06:49:24.455Z,92.17
2022-10-17T06:59:35.394Z,98.30
2022-10-17T07:09:46.957Z,101.43
2022-10-17T07:19:53.728Z,103.30
2022-10-17T07:29:57.095Z,110.33
2022-10-17T07:40:12.785Z,113.10
2022-10-17T07:50:17.157Z,118.20
2022-10-17T08:00:21.917Z,118.23
2022-10-17T08:10:29.339Z,122.47
2022-10-17T08:20:33.960Z,130.45
2022-10-17T08:30:37.309Z,130.50
2022-10-17T08:40:42.957Z,136.32
2022-10-17T08:50:51.360Z,132.82
2022-10-17T09:01:11.910Z,126.82
2022-10-17T09:11:36.017Z,126.60
2022-10-17T09:21:47.324Z,134.95
2022-10-17T09:31:59.959Z,128.55
2022-10-17T09:42:04.855Z,136.43
2022-10-17T09:52:16.586Z,129.98
2022-10-17T10:02:25.142Z,137.30
2022-10-17T10:12:31.076Z,135.88
2022-10-17T10:22:35.974Z,141.10
2022-10-17T10:32:39.459Z,133.82
2022-10-17T10:42:44.165Z,138.60
2022-10-17T10:52:53.558Z,141.10
2022-10-17T11:03:05.679Z,136.73
2022-10-17T11:13:19.857Z,139.32
2022-10-17T11:23:30.182Z,139.00
2022-10-17T11:33:51.239Z,138.48
2022-10-17T11:44:00.932Z,134.52
2022-10-17T11:54:12.918Z,146.18
2022-10-17T12:04:32.155Z,136.70
2022-10-17T12:14:42.473Z,140.65
2022-10-17T12:24:57.083Z,135.38
2022-10-17T12:35:01.359Z,138.63
2022-10-17T12:45:56.042Z,133.25
2022-10-17T12:56:01.737Z,135.25
2022-10-17T13:06:08.738Z,142.38
2022-10-17T13:16:29.742Z,140.30
2022-10-17T13:26:34.511Z,128.45
2022-10-17T13:36:38.041Z,140.68
2022-10-17T13:46:44.140Z,131.85
2022-10-17T13:56:47.487Z,134.48
2022-10-17T14:06:52.588Z,133.07
2022-10-17T14:16:56.319Z,133.30
2022-10-17T14:27:01.898Z,134.43
2022-10-17T14:37:11.812Z,129.98
2022-10-17T14:47:42.231Z,120.55
2022-10-17T14:57:46.880Z,123.90
2022-10-17T15:07:51.874Z,120.93
2022-10-17T15:17:55.131Z,117.10
2022-10-17T15:28:00.077Z,109.03
2022-10-17T15:38:03.403Z,115.63
2022-10-17T15:48:09.182Z,109.07
2022-10-17T15:58:16.550Z,100.33
2022-10-17T16:08:21.153Z,100.23
2022-10-17T16:18:24.403Z,105.83
2022-10-17T16:28:29.206Z,102.80
2022-10-17T16:38:32.576Z,101.37
2022-10-17T16:48:37.286Z,108.37
2022-10-17T16:58:44.011Z,114.77
2022-10-17T17:08:48.967Z,104.40
2022-10-17T17:18:56.230Z,107.57
2022-10-17T17:29:02.275Z,103.27
2022-10-17T17:39:08.680Z,106.90
2022-10-17T17:49:16.175Z,109.97
2022-10-17T17:59:19.484Z,112.00
2022-10-17T18:09:24.458Z,106.63
2022-10-17T18:19:28.424Z,95.07
2022-10-17T18:29:33.627Z,93.10
2022-10-17T18:39:37.227Z,107.93
2022-10-17T18:49:42.942Z,104.17
2022-10-17T18:59:47.595Z,103.87
2022-10-17T19:09:52.321Z,104.73
2022-10-17T19:19:55.936Z,105.87
2022-10-17T19:30:00.570Z,94.57
2022-10-17T19:40:04.573Z,100.83
2022-10-17T19:50:10.030Z,99.03
2022-10-17T20:00:14.901Z,97.47
2022-10-17T20:10:21.588Z,103.97
2022-10-17T20:20:25.018Z,98.87
2022-10-17T20:30:29.826Z,99.20
2022-10-17T20:40:35.601Z,99.87
2022-10-17T20:50:40.651Z,98.50
2022-10-17T21:00:44.421Z,94.33
2022-10-17T21:10:48.980Z,93.87
2022-10-17T21:20:52.682Z,98.27
2022-10-17T21:30:57.351Z,93.70
2022-10-17T21:41:00.602Z,94.90
2022-10-17T21:51:07.519Z,89.50
2022-10-17T22:01:13.963Z,88.80
2022-10-17T22:11:21.498Z,94.43
2022-10-17T22:21:25.214Z,87.23
2022-10-17T22:31:29.955Z,95.13
2022-10-17T22:41:33.405Z,91.40
2022-10-17T22:51:37.992Z,88.90
2022-10-17T23:01:41.330Z,89.00
2022-10-17T23:11:45.931Z,91.10
2022-10-17T23:21:49.169Z,87.67
2022-10-17T23:31:56.973Z,89.43
2022-10-17T23:42:00.215Z,88.33
2022-10-17T23:52:05.138Z,86.67
